sensor_id;sensor_type;location;lat;lon;timestamp;temperature;humidity
38183;DHT22;23991;52.430;10.586;2024-03-08T00:00:23;4.30;61.50
38183;DHT22;23991;52.430;10.586;2024-03-08T00:02:48;4.20;61.50
38183;DHT22;23991;52.430;10.586;2024-03-08T00:05:16;4.20;61.60
38183;DHT22;23991;52.430;10.586;2024-03-08T00:07:42;4.20;61.60
38183;DHT22;23991;52.430;10.586;2024-03-08T00:10:10;4.10;61.70
38183;DHT22;23991;52.430;10.586;2024-03-08T00:12:40;4.10;61.80
38183;DHT22;23991;52.430;10.586;2024-03-08T00:15:09;4.00;61.60
38183;DHT22;23991;52.430;10.586;2024-03-08T00:17:36;4.00;62.10
38183;DHT22;23991;52.430;10.586;2024-03-08T00:20:02;4.00;62.00
38183;DHT22;23991;52.430;10.586;2024-03-08T00:22:28;3.90;62.00
38183;DHT22;23991;52.430;10.586;2024-03-08T00:24:55;3.90;62.20
38183;DHT22;23991;52.430;10.586;2024-03-08T00:27:21;3.90;62.30
38183;DHT22;23991;52.430;10.586;2024-03-08T00:29:47;3.90;62.20
38183;DHT22;23991;52.430;10.586;2024-03-08T00:32:12;3.90;62.30
38183;DHT22;23991;52.430;10.586;2024-03-08T00:34:38;3.90;62.50
38183;DHT22;23991;52.430;10.586;2024-03-08T00:37:04;3.90;62.50
38183;DHT22;23991;52.430;10.586;2024-03-08T00:39:29;3.90;62.60
38183;DHT22;23991;52.430;10.586;2024-03-08T00:41:55;3.90;62.60
38183;DHT22;23991;52.430;10.586;2024-03-08T00:44:20;3.80;62.50
38183;DHT22;23991;52.430;10.586;2024-03-08T00:46:46;3.80;62.60
38183;DHT22;23991;52.430;10.586;2024-03-08T00:49:11;3.80;62.70
38183;DHT22;23991;52.430;10.586;2024-03-08T00:51:38;3.80;62.70
38183;DHT22;23991;52.430;10.586;2024-03-08T00:54:03;3.80;62.70
38183;DHT22;23991;52.430;10.586;2024-03-08T00:56:29;3.80;62.80
38183;DHT22;23991;52.430;10.586;2024-03-08T00:58:55;3.80;63.00
38183;DHT22;23991;52.430;10.586;2024-03-08T01:01:20;3.80;63.00
38183;DHT22;23991;52.430;10.586;2024-03-08T01:03:46;3.70;62.90
38183;DHT22;23991;52.430;10.586;2024-03-08T01:06:11;3.70;62.90
38183;DHT22;23991;52.430;10.586;2024-03-08T01:08:37;3.70;63.00
38183;DHT22;23991;52.430;10.586;2024-03-08T01:11:04;3.70;63.10
38183;DHT22;23991;52.430;10.586;2024-03-08T01:13:30;3.60;63.20
38183;DHT22;23991;52.430;10.586;2024-03-08T01:15:56;3.60;63.30
38183;DHT22;23991;52.430;10.586;2024-03-08T01:18:22;3.60;63.40
38183;DHT22;23991;52.430;10.586;2024-03-08T01:20:47;3.60;63.40
38183;DHT22;23991;52.430;10.586;2024-03-08T01:23:13;3.60;63.50
38183;DHT22;23991;52.430;10.586;2024-03-08T01:25:39;3.50;63.50
38183;DHT22;23991;52.430;10.586;2024-03-08T01:28:08;3.50;63.40
38183;DHT22;23991;52.430;10.586;2024-03-08T01:30:34;3.50;63.60
38183;DHT22;23991;52.430;10.586;2024-03-08T01:33:04;3.40;63.40
38183;DHT22;23991;52.430;10.586;2024-03-08T01:35:29;3.40;63.40
38183;DHT22;23991;52.430;10.586;2024-03-08T01:37:55;3.40;63.40
38183;DHT22;23991;52.430;10.586;2024-03-08T01:40:21;3.40;63.80
38183;DHT22;23991;52.430;10.586;2024-03-08T01:42:46;3.40;63.80
38183;DHT22;23991;52.430;10.586;2024-03-08T01:45:13;3.40;63.70
38183;DHT22;23991;52.430;10.586;2024-03-08T01:47:38;3.30;63.80
38183;DHT22;23991;52.430;10.586;2024-03-08T01:50:04;3.30;63.80
38183;DHT22;23991;52.430;10.586;2024-03-08T01:52:32;3.30;63.70
38183;DHT22;23991;52.430;10.586;2024-03-08T01:55:02;3.20;63.80
38183;DHT22;23991;52.430;10.586;2024-03-08T01:57:31;3.20;63.80
38183;DHT22;23991;52.430;10.586;2024-03-08T01:59:59;3.20;63.90
38183;DHT22;23991;52.430;10.586;2024-03-08T02:02:29;3.20;64.10
38183;DHT22;23991;52.430;10.586;2024-03-08T02:04:56;3.20;64.20
38183;DHT22;23991;52.430;10.586;2024-03-08T02:07:22;3.10;64.40
38183;DHT22;23991;52.430;10.586;2024-03-08T02:09:48;3.10;64.40
38183;DHT22;23991;52.430;10.586;2024-03-08T02:12:13;3.10;64.50
38183;DHT22;23991;52.430;10.586;2024-03-08T02:14:39;3.10;64.50
38183;DHT22;23991;52.430;10.586;2024-03-08T02:17:05;3.00;64.60
38183;DHT22;23991;52.430;10.586;2024-03-08T02:19:31;3.00;64.70
38183;DHT22;23991;52.430;10.586;2024-03-08T02:21:58;3.00;64.70
38183;DHT22;23991;52.430;10.586;2024-03-08T02:24:24;3.00;64.60
38183;DHT22;23991;52.430;10.586;2024-03-08T02:26:50;3.00;64.50
38183;DHT22;23991;52.430;10.586;2024-03-08T02:29:16;3.00;64.50
38183;DHT22;23991;52.430;10.586;2024-03-08T02:31:42;2.90;64.70
38183;DHT22;23991;52.430;10.586;2024-03-08T02:34:08;2.90;64.80
38183;DHT22;23991;52.430;10.586;2024-03-08T02:36:35;2.80;65.00
38183;DHT22;23991;52.430;10.586;2024-03-08T02:39:03;2.80;65.20
38183;DHT22;23991;52.430;10.586;2024-03-08T02:41:30;2.80;65.30
38183;DHT22;23991;52.430;10.586;2024-03-08T02:43:56;2.80;65.40
38183;DHT22;23991;52.430;10.586;2024-03-08T02:46:21;2.80;65.60
38183;DHT22;23991;52.430;10.586;2024-03-08T02:48:47;2.80;65.70
38183;DHT22;23991;52.430;10.586;2024-03-08T02:51:12;2.80;65.70
38183;DHT22;23991;52.430;10.586;2024-03-08T02:53:39;2.80;65.90
38183;DHT22;23991;52.430;10.586;2024-03-08T02:56:04;2.70;66.00
38183;DHT22;23991;52.430;10.586;2024-03-08T02:58:33;2.70;66.20
38183;DHT22;23991;52.430;10.586;2024-03-08T03:00:59;2.60;66.40
38183;DHT22;23991;52.430;10.586;2024-03-08T03:03:25;2.60;66.60
38183;DHT22;23991;52.430;10.586;2024-03-08T03:05:52;2.60;66.70
38183;DHT22;23991;52.430;10.586;2024-03-08T03:08:21;2.70;66.70
38183;DHT22;23991;52.430;10.586;2024-03-08T03:10:46;2.60;66.80
38183;DHT22;23991;52.430;10.586;2024-03-08T03:13:12;2.60;67.00
38183;DHT22;23991;52.430;10.586;2024-03-08T03:15:37;2.60;67.10
38183;DHT22;23991;52.430;10.586;2024-03-08T03:18:03;2.60;67.10
38183;DHT22;23991;52.430;10.586;2024-03-08T03:20:29;2.60;67.20
38183;DHT22;23991;52.430;10.586;2024-03-08T03:23:06;2.60;67.20
38183;DHT22;23991;52.430;10.586;2024-03-08T03:25:34;2.50;67.30
38183;DHT22;23991;52.430;10.586;2024-03-08T03:28:01;2.50;67.40
38183;DHT22;23991;52.430;10.586;2024-03-08T03:30:27;2.50;67.50
38183;DHT22;23991;52.430;10.586;2024-03-08T03:32:56;2.50;67.60
38183;DHT22;23991;52.430;10.586;2024-03-08T03:35:24;2.50;67.70
38183;DHT22;23991;52.430;10.586;2024-03-08T03:37:49;2.50;67.70
38183;DHT22;23991;52.430;10.586;2024-03-08T03:40:34;2.50;67.80
38183;DHT22;23991;52.430;10.586;2024-03-08T03:43:00;2.50;67.80
38183;DHT22;23991;52.430;10.586;2024-03-08T03:45:26;2.40;68.00
38183;DHT22;23991;52.430;10.586;2024-03-08T03:47:51;2.40;67.90
38183;DHT22;23991;52.430;10.586;2024-03-08T03:50:20;2.40;68.00
38183;DHT22;23991;52.430;10.586;2024-03-08T03:52:47;2.40;68.10
38183;DHT22;23991;52.430;10.586;2024-03-08T03:55:13;2.40;68.10
38183;DHT22;23991;52.430;10.586;2024-03-08T03:57:39;2.40;68.10
38183;DHT22;23991;52.430;10.586;2024-03-08T04:00:06;2.40;68.20
38183;DHT22;23991;52.430;10.586;2024-03-08T04:02:39;2.30;68.30
38183;DHT22;23991;52.430;10.586;2024-03-08T04:05:06;2.30;68.50
38183;DHT22;23991;52.430;10.586;2024-03-08T04:07:32;2.30;68.50
38183;DHT22;23991;52.430;10.586;2024-03-08T04:09:58;2.20;68.60
38183;DHT22;23991;52.430;10.586;2024-03-08T04:12:24;2.30;68.70
38183;DHT22;23991;52.430;10.586;2024-03-08T04:14:49;2.20;68.70
38183;DHT22;23991;52.430;10.586;2024-03-08T04:17:15;2.20;68.80
38183;DHT22;23991;52.430;10.586;2024-03-08T04:19:40;2.10;68.80
38183;DHT22;23991;52.430;10.586;2024-03-08T04:22:06;2.20;69.00
38183;DHT22;23991;52.430;10.586;2024-03-08T04:24:33;2.20;69.00
38183;DHT22;23991;52.430;10.586;2024-03-08T04:26:59;2.20;69.10
38183;DHT22;23991;52.430;10.586;2024-03-08T04:29:25;2.20;69.10
38183;DHT22;23991;52.430;10.586;2024-03-08T04:31:50;2.20;69.20
38183;DHT22;23991;52.430;10.586;2024-03-08T04:34:20;2.10;69.20
38183;DHT22;23991;52.430;10.586;2024-03-08T04:36:45;2.10;69.30
38183;DHT22;23991;52.430;10.586;2024-03-08T04:39:11;2.10;69.40
38183;DHT22;23991;52.430;10.586;2024-03-08T04:41:38;2.10;69.40
38183;DHT22;23991;52.430;10.586;2024-03-08T04:44:04;2.10;69.40
38183;DHT22;23991;52.430;10.586;2024-03-08T04:46:30;2.10;69.50
38183;DHT22;23991;52.430;10.586;2024-03-08T04:48:55;2.00;69.60
38183;DHT22;23991;52.430;10.586;2024-03-08T04:51:22;2.00;69.70
38183;DHT22;23991;52.430;10.586;2024-03-08T04:53:47;2.00;69.70
38183;DHT22;23991;52.430;10.586;2024-03-08T04:56:13;2.00;69.80
38183;DHT22;23991;52.430;10.586;2024-03-08T04:58:38;2.00;69.90
38183;DHT22;23991;52.430;10.586;2024-03-08T05:01:04;1.90;70.00
38183;DHT22;23991;52.430;10.586;2024-03-08T05:03:30;1.90;70.10
38183;DHT22;23991;52.430;10.586;2024-03-08T05:05:55;1.90;70.10
38183;DHT22;23991;52.430;10.586;2024-03-08T05:08:21;1.90;70.10
38183;DHT22;23991;52.430;10.586;2024-03-08T05:10:47;1.90;70.20
38183;DHT22;23991;52.430;10.586;2024-03-08T05:13:13;1.90;70.10
38183;DHT22;23991;52.430;10.586;2024-03-08T05:15:38;1.90;70.20
38183;DHT22;23991;52.430;10.586;2024-03-08T05:18:05;1.80;70.10
38183;DHT22;23991;52.430;10.586;2024-03-08T05:20:30;1.80;70.00
38183;DHT22;23991;52.430;10.586;2024-03-08T05:22:56;1.80;70.40
38183;DHT22;23991;52.430;10.586;2024-03-08T05:25:23;1.70;70.40
38183;DHT22;23991;52.430;10.586;2024-03-08T05:27:49;1.70;70.40
38183;DHT22;23991;52.430;10.586;2024-03-08T05:30:18;1.70;70.50
38183;DHT22;23991;52.430;10.586;2024-03-08T05:32:43;1.70;70.70
38183;DHT22;23991;52.430;10.586;2024-03-08T05:35:12;1.70;70.80
38183;DHT22;23991;52.430;10.586;2024-03-08T05:37:38;1.70;70.60
38183;DHT22;23991;52.430;10.586;2024-03-08T05:40:05;1.70;70.60
38183;DHT22;23991;52.430;10.586;2024-03-08T05:42:35;1.80;70.70
38183;DHT22;23991;52.430;10.586;2024-03-08T05:45:04;1.80;70.60
38183;DHT22;23991;52.430;10.586;2024-03-08T05:47:31;1.90;70.30
38183;DHT22;23991;52.430;10.586;2024-03-08T05:49:58;1.80;70.20
38183;DHT22;23991;52.430;10.586;2024-03-08T05:52:27;1.80;70.30
38183;DHT22;23991;52.430;10.586;2024-03-08T05:54:53;1.80;70.30
38183;DHT22;23991;52.430;10.586;2024-03-08T05:57:18;1.80;70.40
38183;DHT22;23991;52.430;10.586;2024-03-08T05:59:44;1.70;70.40
38183;DHT22;23991;52.430;10.586;2024-03-08T06:02:13;1.80;70.60
38183;DHT22;23991;52.430;10.586;2024-03-08T06:04:41;1.80;70.50
38183;DHT22;23991;52.430;10.586;2024-03-08T06:07:08;1.80;70.50
38183;DHT22;23991;52.430;10.586;2024-03-08T06:09:40;1.80;70.50
38183;DHT22;23991;52.430;10.586;2024-03-08T06:12:10;1.90;70.40
38183;DHT22;23991;52.430;10.586;2024-03-08T06:14:36;1.90;70.20
38183;DHT22;23991;52.430;10.586;2024-03-08T06:17:03;1.90;70.10
38183;DHT22;23991;52.430;10.586;2024-03-08T06:19:31;2.00;70.10
38183;DHT22;23991;52.430;10.586;2024-03-08T06:21:56;2.10;69.90
38183;DHT22;23991;52.430;10.586;2024-03-08T06:24:22;2.20;69.70
38183;DHT22;23991;52.430;10.586;2024-03-08T06:26:47;2.20;69.50
38183;DHT22;23991;52.430;10.586;2024-03-08T06:29:14;2.30;69.20
38183;DHT22;23991;52.430;10.586;2024-03-08T06:31:40;2.40;69.00
38183;DHT22;23991;52.430;10.586;2024-03-08T06:34:06;2.40;68.70
38183;DHT22;23991;52.430;10.586;2024-03-08T06:36:33;2.50;68.50
38183;DHT22;23991;52.430;10.586;2024-03-08T06:38:59;2.70;68.40
38183;DHT22;23991;52.430;10.586;2024-03-08T06:41:24;2.80;67.90
38183;DHT22;23991;52.430;10.586;2024-03-08T06:43:50;2.90;67.60
38183;DHT22;23991;52.430;10.586;2024-03-08T06:46:17;3.00;67.10
38183;DHT22;23991;52.430;10.586;2024-03-08T06:48:45;3.10;66.90
38183;DHT22;23991;52.430;10.586;2024-03-08T06:51:11;3.30;66.50
38183;DHT22;23991;52.430;10.586;2024-03-08T06:53:36;3.40;66.30
38183;DHT22;23991;52.430;10.586;2024-03-08T06:56:03;3.50;65.80
38183;DHT22;23991;52.430;10.586;2024-03-08T06:58:29;3.60;65.40
38183;DHT22;23991;52.430;10.586;2024-03-08T07:00:55;3.80;64.80
38183;DHT22;23991;52.430;10.586;2024-03-08T07:03:23;3.90;64.50
38183;DHT22;23991;52.430;10.586;2024-03-08T07:05:51;4.10;63.90
38183;DHT22;23991;52.430;10.586;2024-03-08T07:08:16;4.20;63.60
38183;DHT22;23991;52.430;10.586;2024-03-08T07:10:42;4.40;62.90
38183;DHT22;23991;52.430;10.586;2024-03-08T07:13:08;4.50;62.60
38183;DHT22;23991;52.430;10.586;2024-03-08T07:15:33;4.80;61.80
38183;DHT22;23991;52.430;10.586;2024-03-08T07:18:03;5.00;60.80
38183;DHT22;23991;52.430;10.586;2024-03-08T07:20:29;5.20;60.50
38183;DHT22;23991;52.430;10.586;2024-03-08T07:22:55;5.40;59.90
38183;DHT22;23991;52.430;10.586;2024-03-08T07:25:20;5.60;59.10
38183;DHT22;23991;52.430;10.586;2024-03-08T07:27:53;5.80;58.50
38183;DHT22;23991;52.430;10.586;2024-03-08T07:30:20;5.90;57.80
38183;DHT22;23991;52.430;10.586;2024-03-08T07:33:05;6.10;57.40
38183;DHT22;23991;52.430;10.586;2024-03-08T07:35:32;6.50;56.90
38183;DHT22;23991;52.430;10.586;2024-03-08T07:37:58;6.70;56.10
38183;DHT22;23991;52.430;10.586;2024-03-08T07:40:25;6.80;55.40
38183;DHT22;23991;52.430;10.586;2024-03-08T07:42:51;7.20;54.10
38183;DHT22;23991;52.430;10.586;2024-03-08T07:45:17;7.30;53.70
38183;DHT22;23991;52.430;10.586;2024-03-08T07:47:43;7.40;53.40
38183;DHT22;23991;52.430;10.586;2024-03-08T07:50:09;8.00;52.00
38183;DHT22;23991;52.430;10.586;2024-03-08T07:52:35;8.30;50.90
38183;DHT22;23991;52.430;10.586;2024-03-08T07:55:02;8.20;50.90
38183;DHT22;23991;52.430;10.586;2024-03-08T07:57:29;8.40;50.10
38183;DHT22;23991;52.430;10.586;2024-03-08T07:59:55;8.90;49.40
38183;DHT22;23991;52.430;10.586;2024-03-08T08:02:21;9.20;48.90
38183;DHT22;23991;52.430;10.586;2024-03-08T08:04:46;9.20;48.40
38183;DHT22;23991;52.430;10.586;2024-03-08T08:07:12;9.30;48.50
38183;DHT22;23991;52.430;10.586;2024-03-08T08:09:37;9.60;47.80
38183;DHT22;23991;52.430;10.586;2024-03-08T08:12:03;9.90;46.50
38183;DHT22;23991;52.430;10.586;2024-03-08T08:14:29;9.90;46.80
38183;DHT22;23991;52.430;10.586;2024-03-08T08:16:56;9.90;46.70
38183;DHT22;23991;52.430;10.586;2024-03-08T08:19:22;10.30;46.10
38183;DHT22;23991;52.430;10.586;2024-03-08T08:21:48;10.40;46.00
38183;DHT22;23991;52.430;10.586;2024-03-08T08:24:14;10.60;45.40
38183;DHT22;23991;52.430;10.586;2024-03-08T08:26:40;11.00;44.40
38183;DHT22;23991;52.430;10.586;2024-03-08T08:29:07;10.90;44.50
38183;DHT22;23991;52.430;10.586;2024-03-08T08:31:35;11.20;43.80
38183;DHT22;23991;52.430;10.586;2024-03-08T08:34:01;11.50;43.20
38183;DHT22;23991;52.430;10.586;2024-03-08T08:36:28;11.60;43.00
38183;DHT22;23991;52.430;10.586;2024-03-08T08:38:55;11.70;42.90
38183;DHT22;23991;52.430;10.586;2024-03-08T08:41:22;11.80;42.70
38183;DHT22;23991;52.430;10.586;2024-03-08T08:43:48;11.80;43.20
38183;DHT22;23991;52.430;10.586;2024-03-08T08:46:17;12.10;41.90
38183;DHT22;23991;52.430;10.586;2024-03-08T08:48:43;12.30;41.40
38183;DHT22;23991;52.430;10.586;2024-03-08T08:51:11;12.40;40.90
38183;DHT22;23991;52.430;10.586;2024-03-08T08:53:39;12.80;40.50
38183;DHT22;23991;52.430;10.586;2024-03-08T08:56:12;12.80;40.90
38183;DHT22;23991;52.430;10.586;2024-03-08T08:58:41;13.10;39.90
38183;DHT22;23991;52.430;10.586;2024-03-08T09:01:08;13.30;39.40
38183;DHT22;23991;52.430;10.586;2024-03-08T09:03:35;13.40;39.40
38183;DHT22;23991;52.430;10.586;2024-03-08T09:06:05;13.80;38.40
38183;DHT22;23991;52.430;10.586;2024-03-08T09:08:30;13.80;38.20
38183;DHT22;23991;52.430;10.586;2024-03-08T09:10:56;13.90;37.90
38183;DHT22;23991;52.430;10.586;2024-03-08T09:13:22;14.10;37.80
38183;DHT22;23991;52.430;10.586;2024-03-08T09:15:48;14.50;37.20
38183;DHT22;23991;52.430;10.586;2024-03-08T09:18:14;14.40;37.10
38183;DHT22;23991;52.430;10.586;2024-03-08T09:20:39;14.50;36.70
38183;DHT22;23991;52.430;10.586;2024-03-08T09:23:06;14.70;36.60
38183;DHT22;23991;52.430;10.586;2024-03-08T09:25:33;15.10;36.00
38183;DHT22;23991;52.430;10.586;2024-03-08T09:27:58;15.10;36.00
38183;DHT22;23991;52.430;10.586;2024-03-08T09:30:24;15.40;35.40
38183;DHT22;23991;52.430;10.586;2024-03-08T09:32:49;15.50;35.20
38183;DHT22;23991;52.430;10.586;2024-03-08T09:35:16;15.80;34.60
38183;DHT22;23991;52.430;10.586;2024-03-08T09:37:42;15.70;34.40
38183;DHT22;23991;52.430;10.586;2024-03-08T09:40:07;15.80;34.80
38183;DHT22;23991;52.430;10.586;2024-03-08T09:42:43;15.80;34.80
38183;DHT22;23991;52.430;10.586;2024-03-08T09:45:10;15.80;34.70
38183;DHT22;23991;52.430;10.586;2024-03-08T09:47:44;15.80;34.80
38183;DHT22;23991;52.430;10.586;2024-03-08T09:50:11;16.00;34.70
38183;DHT22;23991;52.430;10.586;2024-03-08T09:52:40;16.40;33.90
38183;DHT22;23991;52.430;10.586;2024-03-08T09:55:06;16.90;32.80
38183;DHT22;23991;52.430;10.586;2024-03-08T09:57:36;16.80;33.10
38183;DHT22;23991;52.430;10.586;2024-03-08T10:00:04;16.80;33.50
38183;DHT22;23991;52.430;10.586;2024-03-08T10:02:45;17.00;33.30
38183;DHT22;23991;52.430;10.586;2024-03-08T10:05:12;17.50;32.60
38183;DHT22;23991;52.430;10.586;2024-03-08T10:07:38;17.60;32.30
38183;DHT22;23991;52.430;10.586;2024-03-08T10:10:04;17.80;31.70
38183;DHT22;23991;52.430;10.586;2024-03-08T10:12:29;17.80;31.30
38183;DHT22;23991;52.430;10.586;2024-03-08T10:14:58;18.00;32.10
38183;DHT22;23991;52.430;10.586;2024-03-08T10:17:24;18.40;31.50
38183;DHT22;23991;52.430;10.586;2024-03-08T10:19:51;18.70;30.40
38183;DHT22;23991;52.430;10.586;2024-03-08T10:22:18;18.20;31.10
38183;DHT22;23991;52.430;10.586;2024-03-08T10:24:45;18.50;31.20
38183;DHT22;23991;52.430;10.586;2024-03-08T10:27:11;19.00;30.50
38183;DHT22;23991;52.430;10.586;2024-03-08T10:29:37;19.00;30.60
38183;DHT22;23991;52.430;10.586;2024-03-08T10:32:04;19.30;29.80
38183;DHT22;23991;52.430;10.586;2024-03-08T10:34:32;19.60;29.40
38183;DHT22;23991;52.430;10.586;2024-03-08T10:37:03;19.60;29.50
38183;DHT22;23991;52.430;10.586;2024-03-08T10:39:36;19.70;29.20
38183;DHT22;23991;52.430;10.586;2024-03-08T10:42:23;19.80;28.90
38183;DHT22;23991;52.430;10.586;2024-03-08T10:45:07;20.10;28.50
38183;DHT22;23991;52.430;10.586;2024-03-08T10:47:41;20.10;28.60
38183;DHT22;23991;52.430;10.586;2024-03-08T10:50:19;20.30;28.20
38183;DHT22;23991;52.430;10.586;2024-03-08T10:52:51;20.40;28.20
38183;DHT22;23991;52.430;10.586;2024-03-08T10:55:20;20.50;27.70
38183;DHT22;23991;52.430;10.586;2024-03-08T10:57:46;20.80;27.70
38183;DHT22;23991;52.430;10.586;2024-03-08T11:00:17;20.60;27.70
38183;DHT22;23991;52.430;10.586;2024-03-08T11:02:47;20.60;27.70
38183;DHT22;23991;52.430;10.586;2024-03-08T11:05:41;21.00;27.10
38183;DHT22;23991;52.430;10.586;2024-03-08T11:08:19;20.90;27.20
38183;DHT22;23991;52.430;10.586;2024-03-08T11:10:49;21.10;27.70
38183;DHT22;23991;52.430;10.586;2024-03-08T11:13:42;21.20;27.00
38183;DHT22;23991;52.430;10.586;2024-03-08T11:16:36;21.10;27.60
38183;DHT22;23991;52.430;10.586;2024-03-08T11:21:37;21.50;27.20
38183;DHT22;23991;52.430;10.586;2024-03-08T11:24:14;22.00;26.10
38183;DHT22;23991;52.430;10.586;2024-03-08T11:26:42;22.20;26.30
38183;DHT22;23991;52.430;10.586;2024-03-08T11:32:19;22.50;26.00
38183;DHT22;23991;52.430;10.586;2024-03-08T11:34:48;22.60;25.00
38183;DHT22;23991;52.430;10.586;2024-03-08T11:37:19;22.40;25.40
38183;DHT22;23991;52.430;10.586;2024-03-08T11:42:13;22.70;25.30
38183;DHT22;23991;52.430;10.586;2024-03-08T11:44:39;23.00;24.60
38183;DHT22;23991;52.430;10.586;2024-03-08T11:47:09;23.10;24.60
38183;DHT22;23991;52.430;10.586;2024-03-08T11:49:36;23.00;25.00
38183;DHT22;23991;52.430;10.586;2024-03-08T11:52:02;22.70;25.20
38183;DHT22;23991;52.430;10.586;2024-03-08T11:54:31;22.80;24.70
38183;DHT22;23991;52.430;10.586;2024-03-08T11:56:57;23.20;24.40
38183;DHT22;23991;52.430;10.586;2024-03-08T11:59:27;23.30;24.40
38183;DHT22;23991;52.430;10.586;2024-03-08T12:02:06;23.20;23.90
38183;DHT22;23991;52.430;10.586;2024-03-08T12:04:32;23.20;24.10
38183;DHT22;23991;52.430;10.586;2024-03-08T12:07:01;23.30;24.00
38183;DHT22;23991;52.430;10.586;2024-03-08T12:09:28;23.40;23.80
38183;DHT22;23991;52.430;10.586;2024-03-08T12:11:54;23.20;24.40
38183;DHT22;23991;52.430;10.586;2024-03-08T12:14:19;23.40;24.00
38183;DHT22;23991;52.430;10.586;2024-03-08T12:16:46;23.50;24.00
38183;DHT22;23991;52.430;10.586;2024-03-08T12:19:13;23.50;24.10
38183;DHT22;23991;52.430;10.586;2024-03-08T12:21:39;23.80;23.30
38183;DHT22;23991;52.430;10.586;2024-03-08T12:24:15;23.80;23.70
38183;DHT22;23991;52.430;10.586;2024-03-08T12:26:42;24.00;23.50
38183;DHT22;23991;52.430;10.586;2024-03-08T12:29:15;23.70;23.30
38183;DHT22;23991;52.430;10.586;2024-03-08T12:31:42;23.70;23.50
38183;DHT22;23991;52.430;10.586;2024-03-08T12:34:08;23.50;23.40
38183;DHT22;23991;52.430;10.586;2024-03-08T12:36:35;23.20;24.00
38183;DHT22;23991;52.430;10.586;2024-03-08T12:39:05;23.20;23.60
38183;DHT22;23991;52.430;10.586;2024-03-08T12:41:39;23.50;23.60
38183;DHT22;23991;52.430;10.586;2024-03-08T12:44:05;23.90;23.00
38183;DHT22;23991;52.430;10.586;2024-03-08T12:46:33;23.70;23.00
38183;DHT22;23991;52.430;10.586;2024-03-08T12:49:00;23.70;22.80
38183;DHT22;23991;52.430;10.586;2024-03-08T12:51:26;23.50;23.20
38183;DHT22;23991;52.430;10.586;2024-03-08T12:53:55;23.20;23.40
38183;DHT22;23991;52.430;10.586;2024-03-08T12:56:32;23.50;22.90
38183;DHT22;23991;52.430;10.586;2024-03-08T12:58:59;22.90;23.60
38183;DHT22;23991;52.430;10.586;2024-03-08T13:01:25;23.30;23.30
38183;DHT22;23991;52.430;10.586;2024-03-08T13:03:52;23.30;23.80
38183;DHT22;23991;52.430;10.586;2024-03-08T13:06:19;23.50;23.60
38183;DHT22;23991;52.430;10.586;2024-03-08T13:08:47;23.80;23.30
38183;DHT22;23991;52.430;10.586;2024-03-08T13:11:13;23.70;23.50
38183;DHT22;23991;52.430;10.586;2024-03-08T13:13:40;24.20;22.80
38183;DHT22;23991;52.430;10.586;2024-03-08T13:16:06;24.00;23.20
38183;DHT22;23991;52.430;10.586;2024-03-08T13:18:35;23.70;23.50
38183;DHT22;23991;52.430;10.586;2024-03-08T13:21:01;24.00;23.20
38183;DHT22;23991;52.430;10.586;2024-03-08T13:23:33;24.10;23.30
38183;DHT22;23991;52.430;10.586;2024-03-08T13:26:05;24.00;23.00
38183;DHT22;23991;52.430;10.586;2024-03-08T13:28:30;23.70;23.10
38183;DHT22;23991;52.430;10.586;2024-03-08T13:31:02;23.60;23.10
38183;DHT22;23991;52.430;10.586;2024-03-08T13:33:28;23.40;23.10
38183;DHT22;23991;52.430;10.586;2024-03-08T13:35:54;23.50;23.00
38183;DHT22;23991;52.430;10.586;2024-03-08T13:38:19;23.40;23.50
38183;DHT22;23991;52.430;10.586;2024-03-08T13:40:46;23.40;23.70
38183;DHT22;23991;52.430;10.586;2024-03-08T13:43:12;23.30;24.00
38183;DHT22;23991;52.430;10.586;2024-03-08T13:45:38;23.30;23.80
38183;DHT22;23991;52.430;10.586;2024-03-08T13:48:04;23.30;23.80
38183;DHT22;23991;52.430;10.586;2024-03-08T13:50:30;23.30;23.90
38183;DHT22;23991;52.430;10.586;2024-03-08T13:52:56;23.30;23.80
38183;DHT22;23991;52.430;10.586;2024-03-08T13:55:22;22.80;24.30
38183;DHT22;23991;52.430;10.586;2024-03-08T13:57:48;22.30;24.50
38183;DHT22;23991;52.430;10.586;2024-03-08T14:00:14;22.30;24.50
38183;DHT22;23991;52.430;10.586;2024-03-08T14:02:40;21.80;25.00
38183;DHT22;23991;52.430;10.586;2024-03-08T14:05:09;22.40;24.50
38183;DHT22;23991;52.430;10.586;2024-03-08T14:07:36;22.30;24.70
38183;DHT22;23991;52.430;10.586;2024-03-08T14:10:02;22.30;24.50
38183;DHT22;23991;52.430;10.586;2024-03-08T14:12:28;22.70;24.30
38183;DHT22;23991;52.430;10.586;2024-03-08T14:14:55;22.50;24.00
38183;DHT22;23991;52.430;10.586;2024-03-08T14:17:21;22.30;24.50
38183;DHT22;23991;52.430;10.586;2024-03-08T14:19:46;22.00;24.60
38183;DHT22;23991;52.430;10.586;2024-03-08T14:22:12;21.90;24.80
38183;DHT22;23991;52.430;10.586;2024-03-08T14:24:40;21.50;25.40
38183;DHT22;23991;52.430;10.586;2024-03-08T14:27:08;21.90;24.90
38183;DHT22;23991;52.430;10.586;2024-03-08T14:29:35;21.80;24.70
38183;DHT22;23991;52.430;10.586;2024-03-08T14:32:01;21.80;25.00
38183;DHT22;23991;52.430;10.586;2024-03-08T14:34:28;21.70;25.00
38183;DHT22;23991;52.430;10.586;2024-03-08T14:36:56;21.60;24.90
38183;DHT22;23991;52.430;10.586;2024-03-08T14:39:22;21.50;25.00
38183;DHT22;23991;52.430;10.586;2024-03-08T14:41:52;21.60;25.00
38183;DHT22;23991;52.430;10.586;2024-03-08T14:44:19;21.30;25.10
38183;DHT22;23991;52.430;10.586;2024-03-08T14:46:45;21.30;24.90
38183;DHT22;23991;52.430;10.586;2024-03-08T14:49:12;21.10;24.90
38183;DHT22;23991;52.430;10.586;2024-03-08T14:51:37;21.10;25.60
38183;DHT22;23991;52.430;10.586;2024-03-08T14:54:03;20.90;25.60
38183;DHT22;23991;52.430;10.586;2024-03-08T14:56:32;21.30;25.20
38183;DHT22;23991;52.430;10.586;2024-03-08T14:58:58;20.90;25.40
38183;DHT22;23991;52.430;10.586;2024-03-08T15:01:25;21.00;25.40
38183;DHT22;23991;52.430;10.586;2024-03-08T15:03:55;20.80;25.40
38183;DHT22;23991;52.430;10.586;2024-03-08T15:06:21;20.70;25.50
38183;DHT22;23991;52.430;10.586;2024-03-08T15:08:47;20.80;25.70
38183;DHT22;23991;52.430;10.586;2024-03-08T15:11:13;20.60;25.20
38183;DHT22;23991;52.430;10.586;2024-03-08T15:13:47;20.70;25.50
38183;DHT22;23991;52.430;10.586;2024-03-08T15:16:16;20.40;25.70
38183;DHT22;23991;52.430;10.586;2024-03-08T15:18:43;20.00;26.30
38183;DHT22;23991;52.430;10.586;2024-03-08T15:21:12;20.20;26.20
38183;DHT22;23991;52.430;10.586;2024-03-08T15:23:43;19.60;26.50
38183;DHT22;23991;52.430;10.586;2024-03-08T15:26:13;19.70;26.70
38183;DHT22;23991;52.430;10.586;2024-03-08T15:28:38;19.30;27.50
38183;DHT22;23991;52.430;10.586;2024-03-08T15:31:05;19.40;27.30
38183;DHT22;23991;52.430;10.586;2024-03-08T15:33:35;19.50;26.90